createdAt,value
2022-09-21T00:00:47.822Z,8.80
2022-09-21T00:02:50.381Z,8.70
2022-09-21T00:04:52.986Z,8.70
2022-09-21T00:06:55.641Z,8.70
2022-09-21T00:08:58.313Z,8.70
2022-09-21T00:11:01.912Z,8.60
2022-09-21T00:13:05.508Z,8.60
2022-09-21T00:15:10.279Z,8.50
2022-09-21T00:17:13.630Z,8.50
2022-09-21T00:19:17.220Z,8.50
2022-09-21T00:21:21.480Z,8.40
2022-09-21T00:23:25.724Z,8.30
2022-09-21T00:25:29.229Z,8.30
2022-09-21T00:27:32.907Z,8.20
2022-09-21T00:29:37.151Z,8.20
2022-09-21T00:31:40.614Z,8.20
2022-09-21T00:33:44.132Z,8.20
2022-09-21T00:35:47.599Z,8.20
2022-09-21T00:37:51.122Z,8.20
2022-09-21T00:39:54.608Z,8.10
2022-09-21T00:41:57.303Z,8.20
2022-09-21T00:44:27.937Z,8.10
2022-09-21T00:46:30.809Z,8.10
2022-09-21T00:48:33.652Z,8.10
2022-09-21T00:50:37.545Z,8.00
2022-09-21T00:52:41.298Z,8.00
2022-09-21T00:54:45.199Z,8.00
2022-09-21T00:56:47.808Z,8.00
2022-09-21T00:58:52.125Z,8.00
2022-09-21T01:00:55.136Z,8.00
2022-09-21T01:02:59.494Z,7.90
2022-09-21T01:05:02.872Z,7.90
2022-09-21T01:07:07.409Z,7.90
2022-09-21T01:09:09.999Z,7.90
2022-09-21T01:11:19.192Z,7.90
2022-09-21T01:13:24.030Z,7.90
2022-09-21T01:15:30.462Z,7.90
2022-09-21T01:17:35.798Z,7.90
2022-09-21T01:19:47.593Z,7.90
2022-09-21T01:21:52.554Z,7.90
2022-09-21T01:24:00.414Z,7.80
2022-09-21T01:26:05.977Z,7.80
2022-09-21T01:28:11.372Z,7.80
2022-09-21T01:30:15.669Z,7.80
2022-09-21T01:32:20.121Z,7.80
2022-09-21T01:34:25.244Z,7.80
2022-09-21T01:36:29.624Z,7.70
2022-09-21T01:38:34.166Z,7.70
2022-09-21T01:40:38.843Z,7.60
2022-09-21T01:42:42.814Z,7.60
2022-09-21T01:44:46.601Z,7.60
2022-09-21T01:46:49.112Z,7.60
2022-09-21T01:48:53.120Z,7.60
2022-09-21T01:53:14.787Z,7.50
2022-09-21T01:55:18.788Z,7.40
2022-09-21T01:57:23.760Z,7.40
2022-09-21T01:59:28.274Z,7.40
2022-09-21T02:01:32.081Z,7.30
2022-09-21T02:03:37.022Z,7.30
2022-09-21T02:05:40.207Z,7.30
2022-09-21T02:07:42.974Z,7.40
2022-09-21T02:09:47.048Z,7.40
2022-09-21T02:11:49.521Z,7.40
2022-09-21T02:13:53.311Z,7.40
2022-09-21T02:16:00.582Z,7.30
2022-09-21T02:18:05.181Z,7.30
2022-09-21T02:20:10.305Z,7.20
2022-09-21T02:22:14.581Z,7.20
2022-09-21T02:24:21.471Z,7.10
2022-09-21T02:26:26.100Z,7.10
2022-09-21T02:28:31.273Z,7.10
2022-09-21T02:30:35.073Z,7.10
2022-09-21T02:32:40.192Z,7.00
2022-09-21T02:34:45.425Z,7.00
2022-09-21T02:36:49.701Z,7.10
2022-09-21T02:38:54.293Z,7.10
2022-09-21T02:40:58.692Z,7.00
2022-09-21T02:43:02.950Z,7.00
2022-09-21T02:45:07.523Z,6.90
2022-09-21T02:47:12.591Z,7.00
2022-09-21T02:49:16.892Z,6.90
2022-09-21T02:51:21.589Z,6.90
2022-09-21T02:53:25.906Z,6.90
2022-09-21T02:55:29.243Z,6.90
2022-09-21T02:57:32.360Z,6.90
2022-09-21T02:59:34.838Z,6.90
2022-09-21T03:01:39.181Z,6.90
2022-09-21T03:03:41.726Z,6.80
2022-09-21T03:05:44.847Z,6.80
2022-09-21T03:07:47.538Z,6.80
2022-09-21T03:09:50.012Z,6.80
2022-09-21T03:11:52.529Z,6.80
2022-09-21T03:13:55.511Z,6.80
2022-09-21T03:16:01.754Z,6.80
2022-09-21T03:18:05.264Z,6.80
2022-09-21T03:20:08.197Z,6.70
2022-09-21T03:22:10.729Z,6.70
2022-09-21T03:24:13.269Z,6.70
2022-09-21T03:26:15.756Z,6.70
2022-09-21T03:28:18.609Z,6.60
2022-09-21T03:30:21.296Z,6.60
2022-09-21T03:32:23.901Z,6.60
2022-09-21T03:34:26.546Z,6.50
2022-09-21T03:36:29.014Z,6.50
2022-09-21T03:38:31.517Z,6.60
2022-09-21T03:40:33.991Z,6.60
2022-09-21T03:42:36.456Z,6.60
2022-09-21T03:44:39.204Z,6.60
2022-09-21T03:46:41.668Z,6.60
2022-09-21T03:48:46.010Z,6.60
2022-09-21T03:50:48.561Z,6.60
2022-09-21T03:52:51.224Z,6.50
2022-09-21T03:54:54.386Z,6.50
2022-09-21T03:56:56.902Z,6.50
2022-09-21T03:58:59.349Z,6.50
2022-09-21T04:03:18.368Z,6.40
2022-09-21T04:05:20.837Z,6.40
2022-09-21T04:07:23.316Z,6.40
2022-09-21T04:09:25.808Z,6.40
2022-09-21T04:11:29.465Z,6.40
2022-09-21T04:13:32.529Z,6.40
2022-09-21T04:15:36.026Z,6.40
2022-09-21T04:17:38.536Z,6.40
2022-09-21T04:19:41.045Z,6.40
2022-09-21T04:21:43.497Z,6.40
2022-09-21T04:23:46.081Z,6.40
2022-09-21T04:25:50.693Z,6.30
2022-09-21T04:27:53.185Z,6.30
2022-09-21T04:29:55.648Z,6.30
2022-09-21T04:31:58.158Z,6.30
2022-09-21T04:34:00.659Z,6.30
2022-09-21T04:36:03.189Z,6.30
2022-09-21T04:38:05.662Z,6.30
2022-09-21T04:40:09.258Z,6.30
2022-09-21T04:42:12.576Z,6.30
2022-09-21T04:44:15.069Z,6.30
2022-09-21T04:46:18.427Z,6.20
2022-09-21T04:48:20.954Z,6.20
2022-09-21T04:50:23.514Z,6.10
2022-09-21T04:52:27.868Z,6.10
2022-09-21T04:54:30.360Z,6.10
2022-09-21T04:56:32.860Z,6.10
2022-09-21T04:58:35.341Z,6.10
2022-09-21T05:00:37.845Z,6.10
2022-09-21T05:02:40.353Z,6.00
2022-09-21T05:04:44.644Z,6.00
2022-09-21T05:06:47.106Z,6.10
2022-09-21T05:09:07.618Z,6.10
2022-09-21T05:11:12.456Z,6.00
2022-09-21T05:13:19.643Z,5.90
2022-09-21T05:15:19.851Z,6.00
2022-09-21T05:17:22.601Z,5.90
2022-09-21T05:19:25.094Z,5.90
2022-09-21T05:21:27.615Z,6.00
2022-09-21T05:23:31.434Z,6.00
2022-09-21T05:25:35.950Z,6.00
2022-09-21T05:27:38.896Z,6.00
2022-09-21T05:29:43.217Z,6.00
2022-09-21T05:31:48.976Z,6.00
2022-09-21T05:33:53.920Z,6.00
2022-09-21T05:35:59.017Z,6.00
2022-09-21T05:38:04.317Z,6.00
2022-09-21T05:40:10.963Z,6.10
2022-09-21T05:42:15.389Z,6.10
2022-09-21T05:44:21.661Z,6.10
2022-09-21T05:46:39.692Z,6.10
2022-09-21T05:48:45.090Z,6.10
2022-09-21T05:50:53.893Z,6.10
2022-09-21T05:52:58.614Z,6.10
2022-09-21T05:55:04.529Z,6.10
2022-09-21T05:57:09.318Z,6.20
2022-09-21T05:59:24.073Z,6.20
2022-09-21T06:01:30.577Z,6.30
2022-09-21T06:03:35.585Z,6.40
2022-09-21T06:05:38.097Z,6.40
2022-09-21T06:07:41.196Z,6.50
2022-09-21T06:09:43.680Z,6.50
2022-09-21T06:11:46.240Z,6.50
2022-09-21T06:13:48.727Z,6.60
2022-09-21T06:15:51.213Z,6.60
2022-09-21T06:17:53.784Z,6.70
2022-09-21T06:19:56.542Z,6.80
2022-09-21T06:21:59.055Z,6.80
2022-09-21T06:24:02.086Z,6.90
2022-09-21T06:26:04.822Z,6.90
2022-09-21T06:28:08.534Z,7.00
2022-09-21T06:32:31.311Z,7.10
2022-09-21T06:34:33.786Z,7.10
2022-09-21T06:38:53.576Z,7.10
2022-09-21T06:40:57.842Z,7.20
2022-09-21T06:43:01.258Z,7.20
2022-09-21T06:45:04.205Z,7.20
2022-09-21T06:47:06.906Z,7.30
2022-09-21T06:49:09.358Z,7.30
2022-09-21T06:51:12.001Z,7.30
2022-09-21T06:53:14.848Z,7.30
2022-09-21T06:55:17.341Z,7.40
2022-09-21T06:57:19.867Z,7.40
2022-09-21T06:59:22.361Z,7.40
2022-09-21T07:01:25.006Z,7.50
2022-09-21T07:03:27.639Z,7.50
2022-09-21T07:05:31.150Z,7.40
2022-09-21T07:07:33.845Z,7.50
2022-09-21T07:11:41.737Z,7.60
2022-09-21T07:13:44.940Z,7.60
2022-09-21T07:15:50.266Z,7.60
2022-09-21T07:17:52.484Z,7.70
2022-09-21T07:19:55.133Z,7.80
2022-09-21T07:21:57.659Z,7.80
2022-09-21T07:24:00.213Z,7.80
2022-09-21T07:26:03.591Z,7.90
2022-09-21T07:28:06.105Z,8.00
2022-09-21T07:30:10.173Z,8.10
2022-09-21T07:32:12.884Z,8.20
2022-09-21T07:34:15.489Z,8.20
2022-09-21T07:36:18.191Z,8.20
2022-09-21T07:38:20.673Z,8.30
2022-09-21T07:40:25.315Z,8.40
2022-09-21T07:42:27.763Z,8.50
2022-09-21T07:44:30.237Z,8.50
2022-09-21T07:46:32.733Z,8.60
2022-09-21T07:48:35.712Z,8.70
2022-09-21T07:50:38.377Z,8.70
2022-09-21T07:54:56.992Z,8.80
2022-09-21T07:57:22.785Z,8.90
2022-09-21T08:01:41.434Z,9.10
2022-09-21T08:03:43.961Z,9.00
2022-09-21T08:05:46.690Z,9.10
2022-09-21T08:07:49.257Z,9.20
2022-09-21T08:09:51.844Z,9.20
2022-09-21T08:11:55.213Z,9.40
2022-09-21T08:13:59.239Z,9.40
2022-09-21T08:16:02.535Z,9.50
2022-09-21T08:18:06.541Z,9.60
2022-09-21T08:20:09.937Z,9.70
2022-09-21T08:22:13.648Z,9.70
2022-09-21T08:24:16.157Z,9.80
2022-09-21T08:26:19.258Z,9.80
2022-09-21T08:28:21.743Z,9.90
2022-09-21T08:30:33.235Z,10.00
2022-09-21T08:32:51.518Z,10.10
2022-09-21T08:34:52.084Z,10.20
2022-09-21T08:36:55.881Z,10.30
2022-09-21T08:38:58.651Z,10.50
2022-09-21T08:41:01.890Z,10.50
2022-09-21T08:43:06.230Z,10.60
2022-09-21T08:45:11.489Z,10.60
2022-09-21T08:47:15.478Z,10.70
2022-09-21T08:49:19.784Z,10.80
2022-09-21T08:53:40.784Z,10.90
2022-09-21T08:55:43.379Z,11.00
2022-09-21T08:57:46.186Z,11.20
2022-09-21T08:59:49.177Z,11.40
2022-09-21T09:01:55.925Z,11.60
2022-09-21T09:04:07.400Z,11.70
2022-09-21T09:06:11.993Z,11.90
2022-09-21T09:10:39.114Z,12.20
2022-09-21T09:12:48.892Z,12.30
2022-09-21T09:14:57.217Z,12.50
2022-09-21T09:17:03.181Z,12.60
2022-09-21T09:19:07.961Z,12.70
2022-09-21T09:21:11.881Z,12.80
2022-09-21T09:23:16.982Z,12.90
2022-09-21T09:25:21.478Z,13.00
2022-09-21T09:27:25.747Z,13.20
2022-09-21T09:29:30.492Z,13.20
2022-09-21T09:31:33.694Z,13.40
2022-09-21T09:33:41.215Z,13.50
2022-09-21T09:35:46.045Z,13.60
2022-09-21T09:37:49.955Z,13.70
2022-09-21T09:39:54.167Z,13.80
2022-09-21T09:42:05.994Z,13.90
2022-09-21T09:44:13.839Z,14.10
2022-09-21T09:48:38.253Z,14.40
2022-09-21T09:50:41.647Z,14.40
2022-09-21T09:52:44.698Z,14.70
2022-09-21T09:54:47.905Z,14.70
2022-09-21T09:56:50.387Z,14.90
2022-09-21T09:58:54.089Z,15.10
2022-09-21T10:00:58.797Z,15.20
2022-09-21T10:03:00.931Z,15.40
2022-09-21T10:05:05.577Z,15.60
2022-09-21T10:07:11.257Z,15.70
2022-09-21T10:09:18.978Z,15.70
2022-09-21T10:11:23.260Z,15.80
2022-09-21T10:13:27.416Z,15.90
2022-09-21T10:15:29.903Z,15.80
2022-09-21T10:17:32.463Z,15.80
2022-09-21T10:19:35.070Z,15.80
2022-09-21T10:21:39.252Z,15.80
2022-09-21T10:23:43.587Z,16.10
2022-09-21T10:25:48.233Z,16.40
2022-09-21T10:27:51.309Z,16.50
2022-09-21T10:29:53.885Z,16.70
2022-09-21T10:31:57.182Z,16.80
2022-09-21T10:34:07.055Z,16.80
2022-09-21T10:36:11.478Z,16.90
2022-09-21T10:38:21.304Z,16.90
2022-09-21T10:40:25.041Z,17.00
2022-09-21T10:42:29.357Z,17.10
2022-09-21T10:44:41.989Z,17.00
2022-09-21T10:46:45.013Z,17.10
2022-09-21T10:48:47.510Z,17.20
2022-09-21T10:50:51.043Z,17.40
2022-09-21T10:52:56.626Z,17.50
2022-09-21T10:54:59.296Z,17.70
2022-09-21T10:57:02.942Z,17.80
2022-09-21T10:59:12.387Z,17.80
2022-09-21T11:01:17.853Z,17.80
2022-09-21T11:03:34.152Z,17.90
2022-09-21T11:05:37.982Z,17.90
2022-09-21T11:07:42.249Z,18.10
2022-09-21T11:09:47.270Z,18.30
2022-09-21T11:11:52.604Z,18.30
2022-09-21T11:13:57.065Z,18.40
2022-09-21T11:16:01.679Z,18.40
2022-09-21T11:18:07.086Z,18.40
2022-09-21T11:20:14.948Z,18.40
2022-09-21T11:22:19.560Z,18.40
2022-09-21T11:24:25.078Z,18.50
2022-09-21T11:26:29.494Z,18.40
2022-09-21T11:28:35.213Z,18.50
2022-09-21T11:30:41.340Z,18.40
2022-09-21T11:32:52.133Z,18.20
2022-09-21T11:35:02.105Z,18.10
2022-09-21T11:37:09.961Z,18.10
2022-09-21T11:39:14.797Z,18.10
2022-09-21T11:41:28.229Z,18.10
2022-09-21T11:43:41.997Z,18.10
2022-09-21T11:45:50.662Z,18.00
2022-09-21T11:48:01.093Z,18.10
2022-09-21T11:52:32.733Z,17.90
2022-09-21T11:54:53.153Z,17.80
2022-09-21T11:56:57.710Z,17.70
2022-09-21T11:59:05.837Z,17.50
2022-09-21T12:01:12.195Z,17.20
2022-09-21T12:05:51.180Z,17.20
2022-09-21T12:07:58.548Z,17.40
2022-09-21T12:10:08.927Z,17.50
2022-09-21T12:12:13.095Z,17.70
2022-09-21T12:14:18.905Z,17.70
2022-09-21T12:16:23.426Z,17.70
2022-09-21T12:18:28.252Z,17.70
2022-09-21T12:22:52.162Z,17.80
2022-09-21T12:24:56.621Z,17.90
2022-09-21T12:27:00.924Z,18.00
2022-09-21T12:29:05.253Z,18.00
2022-09-21T12:31:11.183Z,18.10
2022-09-21T12:33:17.051Z,18.10
2022-09-21T12:35:22.649Z,18.10
2022-09-21T12:37:27.457Z,18.20
2022-09-21T12:39:31.939Z,18.30
2022-09-21T12:41:37.169Z,18.30
2022-09-21T12:43:41.705Z,18.30
2022-09-21T12:45:46.435Z,18.40
2022-09-21T12:47:51.432Z,18.30
2022-09-21T12:49:56.155Z,18.40
2022-09-21T12:51:59.573Z,18.30
2022-09-21T12:54:05.280Z,18.40
2022-09-21T12:56:10.277Z,18.40
2022-09-21T12:58:23.989Z,18.20
2022-09-21T13:00:28.306Z,18.00
2022-09-21T13:02:32.845Z,17.70
2022-09-21T13:04:40.077Z,17.40
2022-09-21T13:06:50.987Z,17.30
2022-09-21T13:08:53.588Z,17.10
2022-09-21T13:10:58.722Z,17.00
2022-09-21T13:13:02.793Z,16.80
2022-09-21T13:15:07.689Z,16.70
2022-09-21T13:19:29.002Z,16.60
2022-09-21T13:21:33.301Z,16.60
2022-09-21T13:23:38.445Z,16.50
2022-09-21T13:25:40.931Z,16.50
2022-09-21T13:28:00.138Z,16.40
2022-09-21T13:30:29.114Z,16.40
2022-09-21T13:32:34.350Z,16.40
2022-09-21T13:34:38.482Z,16.30
2022-09-21T13:36:42.570Z,16.30
2022-09-21T13:38:57.701Z,16.20
2022-09-21T13:41:01.401Z,16.20
2022-09-21T13:43:17.532Z,16.20
2022-09-21T13:45:37.941Z,16.20
2022-09-21T13:50:00.518Z,16.00
2022-09-21T13:52:02.109Z,15.90
2022-09-21T13:54:04.765Z,15.90
2022-09-21T13:56:09.039Z,15.90
2022-09-21T13:58:18.462Z,15.80
2022-09-21T14:00:29.463Z,15.80
2022-09-21T14:02:32.510Z,15.80
2022-09-21T14:04:37.073Z,15.80
2022-09-21T14:06:44.468Z,15.70
2022-09-21T14:08:49.973Z,15.70
2022-09-21T14:10:54.778Z,15.80
2022-09-21T14:12:57.787Z,15.70
2022-09-21T14:15:12.332Z,15.70
2022-09-21T14:17:33.578Z,15.70
2022-09-21T14:20:13.377Z,15.90
2022-09-21T14:22:33.477Z,16.10
2022-09-21T14:24:37.649Z,16.40
2022-09-21T14:26:48.237Z,16.50
2022-09-21T14:28:51.587Z,16.70
2022-09-21T14:30:56.142Z,16.80
2022-09-21T14:33:06.700Z,16.90
2022-09-21T14:35:11.568Z,17.10
2022-09-21T14:37:16.277Z,17.10
2022-09-21T14:39:20.589Z,17.20
2022-09-21T14:41:24.997Z,17.20
2022-09-21T14:43:29.233Z,17.30
2022-09-21T14:45:33.569Z,17.40
2022-09-21T14:47:46.798Z,17.70
2022-09-21T14:49:56.921Z,17.80
2022-09-21T14:52:12.963Z,18.00
2022-09-21T14:54:20.177Z,18.20
2022-09-21T14:56:28.926Z,18.30
2022-09-21T14:58:39.637Z,18.50
2022-09-21T15:00:42.703Z,18.50
2022-09-21T15:02:45.853Z,18.60
2022-09-21T15:04:57.318Z,18.70
2022-09-21T15:07:27.732Z,18.80
2022-09-21T15:11:49.309Z,18.60
2022-09-21T15:13:54.325Z,18.60
2022-09-21T15:16:02.727Z,18.70
2022-09-21T15:18:15.989Z,18.80
2022-09-21T15:20:21.210Z,18.90
2022-09-21T15:22:24.370Z,18.90
2022-09-21T15:24:29.025Z,18.90
2022-09-21T15:26:33.247Z,18.80
2022-09-21T15:28:51.965Z,18.90
2022-09-21T15:30:45.333Z,18.90
2022-09-21T15:32:50.046Z,18.90
2022-09-21T15:34:59.098Z,19.00
2022-09-21T15:37:09.848Z,18.90
2022-09-21T15:39:22.661Z,18.80
2022-09-21T15:41:38.893Z,18.80
2022-09-21T15:43:41.994Z,19.00
2022-09-21T15:45:50.028Z,19.10
2022-09-21T15:47:53.906Z,19.20
2022-09-21T15:49:56.637Z,19.30
2022-09-21T15:52:01.166Z,19.20
2022-09-21T15:54:06.013Z,19.20
2022-09-21T15:56:13.122Z,19.20
2022-09-21T15:58:18.162Z,19.20
2022-09-21T16:00:22.591Z,19.10
2022-09-21T16:02:26.713Z,19.10
2022-09-21T16:04:29.330Z,19.10
2022-09-21T16:06:36.261Z,19.10
2022-09-21T16:08:38.977Z,19.10
2022-09-21T16:10:41.486Z,19.10
2022-09-21T16:15:04.092Z,18.90
2022-09-21T16:17:07.483Z,18.80
2022-09-21T16:19:09.949Z,18.80
2022-09-21T16:21:21.380Z,18.70
2022-09-21T16:23:26.124Z,18.50
2022-09-21T16:25:31.884Z,18.40
2022-09-21T16:27:34.428Z,18.10
2022-09-21T16:29:38.980Z,17.80
2022-09-21T16:31:45.078Z,17.70
2022-09-21T16:33:57.026Z,17.60
2022-09-21T16:36:01.279Z,17.50
2022-09-21T16:38:05.466Z,17.30
2022-09-21T16:40:09.470Z,17.10
2022-09-21T16:42:12.242Z,17.00
2022-09-21T16:44:17.969Z,16.90
2022-09-21T16:46:20.512Z,16.80
2022-09-21T16:48:23.035Z,16.70
2022-09-21T16:50:25.498Z,16.50
2022-09-21T16:52:28.600Z,16.40
2022-09-21T16:54:31.222Z,16.30
2022-09-21T16:56:34.385Z,16.20
2022-09-21T16:58:36.894Z,16.10
2022-09-21T17:00:41.328Z,15.90
2022-09-21T17:02:44.809Z,15.90
2022-09-21T17:04:47.753Z,15.90
2022-09-21T17:06:50.272Z,15.80
2022-09-21T17:08:52.794Z,15.80
2022-09-21T17:10:55.302Z,15.70
2022-09-21T17:12:58.573Z,15.60
2022-09-21T17:15:01.069Z,15.60
2022-09-21T17:17:05.680Z,15.60
2022-09-21T17:19:08.929Z,15.50
2022-09-21T17:21:11.431Z,15.40
2022-09-21T17:23:14.640Z,15.30
2022-09-21T17:25:17.102Z,15.20
2022-09-21T17:27:21.967Z,15.20
2022-09-21T17:29:26.465Z,15.10
2022-09-21T17:31:28.990Z,15.00
2022-09-21T17:33:31.545Z,15.00
2022-09-21T17:35:35.863Z,15.00
2022-09-21T17:37:38.491Z,14.90
2022-09-21T17:39:41.930Z,14.80
2022-09-21T17:41:50.034Z,14.80
2022-09-21T17:43:56.362Z,14.60
2022-09-21T17:46:00.967Z,14.40
2022-09-21T17:48:04.397Z,14.30
2022-09-21T17:50:14.720Z,14.10
2022-09-21T17:54:37.885Z,13.80
2022-09-21T17:56:42.870Z,13.70
2022-09-21T17:58:47.296Z,13.60
2022-09-21T18:00:52.125Z,13.50
2022-09-21T18:02:54.877Z,13.50
2022-09-21T18:04:59.286Z,13.40
2022-09-21T18:07:02.668Z,13.40
2022-09-21T18:09:05.880Z,13.30
2022-09-21T18:13:31.654Z,13.20
2022-09-21T18:15:37.265Z,13.20
2022-09-21T18:17:50.575Z,13.20
2022-09-21T18:19:57.370Z,13.10
2022-09-21T18:22:02.214Z,13.20
2022-09-21T18:24:17.354Z,13.10
2022-09-21T18:26:20.341Z,13.10
2022-09-21T18:28:24.837Z,13.00
2022-09-21T18:30:27.756Z,13.00
2022-09-21T18:32:33.770Z,13.00
2022-09-21T18:34:43.812Z,12.90
2022-09-21T18:36:48.574Z,12.80
2022-09-21T18:38:54.277Z,12.70
2022-09-21T18:41:11.583Z,12.60
2022-09-21T18:43:20.685Z,12.60
2022-09-21T18:45:25.018Z,12.40
2022-09-21T18:47:29.425Z,12.40
2022-09-21T18:49:41.161Z,12.30
2022-09-21T18:51:45.494Z,12.10
2022-09-21T18:53:49.880Z,12.00
2022-09-21T18:55:53.067Z,12.00
2022-09-21T18:57:56.606Z,12.00
2022-09-21T18:59:59.752Z,12.00
2022-09-21T19:02:03.062Z,12.00
2022-09-21T19:04:06.517Z,12.00
2022-09-21T19:06:17.305Z,12.00
2022-09-21T19:08:21.617Z,12.00
2022-09-21T19:10:26.230Z,12.00
2022-09-21T19:14:50.693Z,12.00
2022-09-21T19:16:57.651Z,12.00
2022-09-21T19:19:07.428Z,11.90
2022-09-21T19:21:13.819Z,11.80
2022-09-21T19:23:19.993Z,11.80
2022-09-21T19:25:25.185Z,11.70
2022-09-21T19:27:30.670Z,11.70
2022-09-21T19:29:38.121Z,11.70
2022-09-21T19:31:40.750Z,11.70
2022-09-21T19:33:51.909Z,11.60
2022-09-21T19:35:49.405Z,11.60
2022-09-21T19:37:53.129Z,11.50
2022-09-21T19:39:56.044Z,11.50
2022-09-21T19:42:01.954Z,11.50
2022-09-21T19:44:08.550Z,11.40
2022-09-21T19:46:14.244Z,11.30
2022-09-21T19:48:18.266Z,11.30
2022-09-21T19:50:22.335Z,11.20
2022-09-21T19:52:27.406Z,11.10
2022-09-21T19:57:04.415Z,11.00
2022-09-21T19:59:25.853Z,10.90
2022-09-21T20:01:28.996Z,10.90
2022-09-21T20:03:33.442Z,10.90
2022-09-21T20:05:40.084Z,10.90
2022-09-21T20:07:44.665Z,10.90
2022-09-21T20:09:50.546Z,11.00
2022-09-21T20:11:55.786Z,11.00
2022-09-21T20:14:02.517Z,10.90
2022-09-21T20:16:08.213Z,10.80
2022-09-21T20:18:12.910Z,10.80
2022-09-21T20:20:17.884Z,10.70
2022-09-21T20:22:23.020Z,10.70
2022-09-21T20:24:27.098Z,10.70
2022-09-21T20:26:29.813Z,10.60
2022-09-21T20:28:32.778Z,10.50
2022-09-21T20:30:35.743Z,10.50
2022-09-21T20:32:39.069Z,10.50
2022-09-21T20:34:41.607Z,10.30
2022-09-21T20:36:44.122Z,10.20
2022-09-21T20:38:46.607Z,10.30
2022-09-21T20:40:49.133Z,10.30
2022-09-21T20:42:51.941Z,10.30
2022-09-21T20:44:54.432Z,10.20
2022-09-21T20:46:57.023Z,10.30
2022-09-21T20:49:03.938Z,10.20
2022-09-21T20:51:06.662Z,10.30
2022-09-21T20:53:09.526Z,10.20
2022-09-21T20:55:13.186Z,10.10
2022-09-21T20:57:15.690Z,10.00
2022-09-21T20:59:18.233Z,10.00
2022-09-21T21:01:20.826Z,9.90
2022-09-21T21:03:23.320Z,9.90
2022-09-21T21:05:27.829Z,9.90
2022-09-21T21:07:30.815Z,9.80
2022-09-21T21:09:33.486Z,9.80
2022-09-21T21:11:35.959Z,9.80
2022-09-21T21:13:38.457Z,9.70
2022-09-21T21:15:40.950Z,9.70
2022-09-21T21:17:43.444Z,9.60
2022-09-21T21:19:45.941Z,9.60
2022-09-21T21:21:48.608Z,9.60
2022-09-21T21:24:09.015Z,9.60
2022-09-21T21:26:11.557Z,9.60
2022-09-21T21:28:14.026Z,9.50
2022-09-21T21:30:16.642Z,9.50
2022-09-21T21:32:19.616Z,9.50
2022-09-21T21:34:22.526Z,9.50
2022-09-21T21:36:25.052Z,9.40
2022-09-21T21:38:27.586Z,9.40
2022-09-21T21:40:30.273Z,9.20
2022-09-21T21:42:33.810Z,9.20
2022-09-21T21:44:36.606Z,9.10
2022-09-21T21:46:39.090Z,9.20
2022-09-21T21:51:00.881Z,9.20
2022-09-21T21:53:03.488Z,9.20
2022-09-21T21:55:06.932Z,9.10
2022-09-21T21:57:09.820Z,9.20
2022-09-21T21:59:17.466Z,9.20
2022-09-21T22:01:18.628Z,9.20
2022-09-21T22:03:21.153Z,9.10
2022-09-21T22:05:23.645Z,9.00
2022-09-21T22:07:26.153Z,9.00
2022-09-21T22:09:28.654Z,9.00
2022-09-21T22:11:31.446Z,8.90
2022-09-21T22:13:36.187Z,8.90
2022-09-21T22:15:39.002Z,8.80
2022-09-21T22:17:41.611Z,8.80
2022-09-21T22:19:44.540Z,8.80
2022-09-21T22:21:51.746Z,8.80
2022-09-21T22:23:53.620Z,8.90
2022-09-21T22:26:01.458Z,8.90
2022-09-21T22:28:04.347Z,8.90
2022-09-21T22:30:09.226Z,8.90
2022-09-21T22:32:11.756Z,8.90
2022-09-21T22:34:14.407Z,8.90
2022-09-21T22:36:17.819Z,8.90
2022-09-21T22:38:20.339Z,8.80
2022-09-21T22:40:22.854Z,8.80
2022-09-21T22:42:26.066Z,8.80
2022-09-21T22:44:28.790Z,8.70
2022-09-21T22:46:31.854Z,8.70
2022-09-21T22:48:35.011Z,8.70
2022-09-21T22:50:37.488Z,8.70
2022-09-21T22:52:41.782Z,8.60
2022-09-21T22:54:45.295Z,8.60
2022-09-21T22:56:48.155Z,8.50
2022-09-21T22:58:51.566Z,8.50
2022-09-21T23:00:55.930Z,8.50
2022-09-21T23:02:58.505Z,8.50
2022-09-21T23:05:01.035Z,8.60
2022-09-21T23:07:03.586Z,8.50
2022-09-21T23:09:07.274Z,8.50
2022-09-21T23:11:11.590Z,8.50
2022-09-21T23:13:15.417Z,8.50
2022-09-21T23:15:18.394Z,8.50
2022-09-21T23:17:21.314Z,8.40
2022-09-21T23:19:24.197Z,8.30
2022-09-21T23:21:28.064Z,8.30
2022-09-21T23:23:32.388Z,8.20
2022-09-21T23:25:34.844Z,8.20
2022-09-21T23:27:37.855Z,8.10
2022-09-21T23:29:40.358Z,8.00
2022-09-21T23:31:45.508Z,8.00
2022-09-21T23:33:48.331Z,8.00
2022-09-21T23:35:50.923Z,8.00
2022-09-21T23:37:53.436Z,8.00
2022-09-21T23:39:56.156Z,8.00
2022-09-21T23:41:59.036Z,8.00
2022-09-21T23:44:02.589Z,8.00
2022-09-21T23:46:24.024Z,8.00
2022-09-21T23:48:34.233Z,8.00
2022-09-21T23:50:36.852Z,8.00
2022-09-21T23:52:39.353Z,8.00
2022-09-21T23:54:41.826Z,8.00
2022-09-21T23:58:59.719Z,7.90
